sensor_id;sensor_type;location;lat;lon;timestamp;temperature;humidity
40622;DHT22;26324;52.040;11.528;2023-03-20T00:02:20;10.10;87.40
40622;DHT22;26324;52.040;11.528;2023-03-20T00:04:48;10.10;87.40
40622;DHT22;26324;52.040;11.528;2023-03-20T00:07:15;10.10;87.50
40622;DHT22;26324;52.040;11.528;2023-03-20T00:09:43;10.10;87.50
40622;DHT22;26324;52.040;11.528;2023-03-20T00:12:21;10.00;87.80
40622;DHT22;26324;52.040;11.528;2023-03-20T00:14:51;10.00;87.60
40622;DHT22;26324;52.040;11.528;2023-03-20T00:17:20;10.00;87.70
40622;DHT22;26324;52.040;11.528;2023-03-20T00:19:48;9.90;87.60
40622;DHT22;26324;52.040;11.528;2023-03-20T00:22:15;9.90;87.60
40622;DHT22;26324;52.040;11.528;2023-03-20T00:24:44;9.90;87.90
40622;DHT22;26324;52.040;11.528;2023-03-20T00:27:13;9.80;88.10
40622;DHT22;26324;52.040;11.528;2023-03-20T00:29:41;9.80;88.20
40622;DHT22;26324;52.040;11.528;2023-03-20T00:32:12;9.70;88.30
40622;DHT22;26324;52.040;11.528;2023-03-20T00:34:40;9.70;88.60
40622;DHT22;26324;52.040;11.528;2023-03-20T00:37:08;9.70;88.70
40622;DHT22;26324;52.040;11.528;2023-03-20T00:39:37;9.80;88.20
40622;DHT22;26324;52.040;11.528;2023-03-20T00:42:06;9.80;88.20
40622;DHT22;26324;52.040;11.528;2023-03-20T00:44:52;9.80;88.10
40622;DHT22;26324;52.040;11.528;2023-03-20T00:47:24;9.90;88.30
40622;DHT22;26324;52.040;11.528;2023-03-20T00:49:53;9.90;88.10
40622;DHT22;26324;52.040;11.528;2023-03-20T00:52:22;10.00;88.00
40622;DHT22;26324;52.040;11.528;2023-03-20T00:54:50;10.00;87.90
40622;DHT22;26324;52.040;11.528;2023-03-20T00:59:53;10.00;87.70
40622;DHT22;26324;52.040;11.528;2023-03-20T01:02:26;9.90;87.80
40622;DHT22;26324;52.040;11.528;2023-03-20T01:04:55;9.90;87.80
40622;DHT22;26324;52.040;11.528;2023-03-20T01:07:22;10.00;87.80
40622;DHT22;26324;52.040;11.528;2023-03-20T01:09:51;10.10;87.70
40622;DHT22;26324;52.040;11.528;2023-03-20T01:12:19;10.10;87.50
40622;DHT22;26324;52.040;11.528;2023-03-20T01:14:54;10.30;87.40
40622;DHT22;26324;52.040;11.528;2023-03-20T01:17:23;10.40;86.90
40622;DHT22;26324;52.040;11.528;2023-03-20T01:19:52;10.40;86.40
40622;DHT22;26324;52.040;11.528;2023-03-20T01:22:19;10.50;86.50
40622;DHT22;26324;52.040;11.528;2023-03-20T01:24:47;10.50;85.90
40622;DHT22;26324;52.040;11.528;2023-03-20T01:27:16;10.50;86.10
40622;DHT22;26324;52.040;11.528;2023-03-20T01:29:44;10.40;86.20
40622;DHT22;26324;52.040;11.528;2023-03-20T01:32:15;10.40;86.30
40622;DHT22;26324;52.040;11.528;2023-03-20T01:34:46;10.40;86.50
40622;DHT22;26324;52.040;11.528;2023-03-20T01:37:22;10.20;86.60
40622;DHT22;26324;52.040;11.528;2023-03-20T01:39:52;10.20;86.70
40622;DHT22;26324;52.040;11.528;2023-03-20T01:42:19;10.20;86.90
40622;DHT22;26324;52.040;11.528;2023-03-20T01:44:47;10.10;86.90
40622;DHT22;26324;52.040;11.528;2023-03-20T01:47:21;10.10;86.90
40622;DHT22;26324;52.040;11.528;2023-03-20T01:50:22;10.10;86.80
40622;DHT22;26324;52.040;11.528;2023-03-20T01:53:01;10.20;86.80
40622;DHT22;26324;52.040;11.528;2023-03-20T01:55:31;10.20;86.80
40622;DHT22;26324;52.040;11.528;2023-03-20T01:58:05;10.20;86.70
40622;DHT22;26324;52.040;11.528;2023-03-20T02:00:34;10.20;86.60
40622;DHT22;26324;52.040;11.528;2023-03-20T02:03:05;10.20;86.50
40622;DHT22;26324;52.040;11.528;2023-03-20T02:06:08;10.20;86.40
40622;DHT22;26324;52.040;11.528;2023-03-20T02:08:56;10.20;86.40
40622;DHT22;26324;52.040;11.528;2023-03-20T02:11:25;10.10;86.40
40622;DHT22;26324;52.040;11.528;2023-03-20T02:13:54;10.20;86.60
40622;DHT22;26324;52.040;11.528;2023-03-20T02:16:26;10.20;86.50
40622;DHT22;26324;52.040;11.528;2023-03-20T02:19:00;10.20;86.50
40622;DHT22;26324;52.040;11.528;2023-03-20T02:22:03;10.30;86.50
40622;DHT22;26324;52.040;11.528;2023-03-20T02:27:57;10.40;86.20
40622;DHT22;26324;52.040;11.528;2023-03-20T02:30:33;10.40;86.30
40622;DHT22;26324;52.040;11.528;2023-03-20T02:41:36;10.50;86.30
40622;DHT22;26324;52.040;11.528;2023-03-20T02:44:19;10.50;86.20
40622;DHT22;26324;52.040;11.528;2023-03-20T02:46:59;10.50;86.10
40622;DHT22;26324;52.040;11.528;2023-03-20T02:49:54;10.50;86.10
40622;DHT22;26324;52.040;11.528;2023-03-20T02:52:45;10.50;86.20
40622;DHT22;26324;52.040;11.528;2023-03-20T02:58:33;10.50;86.40
40622;DHT22;26324;52.040;11.528;2023-03-20T03:01:09;10.40;86.40
40622;DHT22;26324;52.040;11.528;2023-03-20T03:06:55;10.50;86.70
40622;DHT22;26324;52.040;11.528;2023-03-20T03:09:29;10.40;86.50
40622;DHT22;26324;52.040;11.528;2023-03-20T03:12:11;10.50;86.50
40622;DHT22;26324;52.040;11.528;2023-03-20T03:14:50;10.50;86.50
40622;DHT22;26324;52.040;11.528;2023-03-20T03:17:21;10.40;86.90
40622;DHT22;26324;52.040;11.528;2023-03-20T03:19:54;10.50;86.80
40622;DHT22;26324;52.040;11.528;2023-03-20T03:22:24;10.40;86.90
40622;DHT22;26324;52.040;11.528;2023-03-20T03:24:53;10.40;87.00
40622;DHT22;26324;52.040;11.528;2023-03-20T03:29:57;10.50;87.00
40622;DHT22;26324;52.040;11.528;2023-03-20T03:32:35;10.50;86.90
40622;DHT22;26324;52.040;11.528;2023-03-20T03:35:05;10.50;87.20
40622;DHT22;26324;52.040;11.528;2023-03-20T03:38:01;10.50;87.10
40622;DHT22;26324;52.040;11.528;2023-03-20T03:40:56;10.50;87.00
40622;DHT22;26324;52.040;11.528;2023-03-20T03:43:40;10.40;87.40
40622;DHT22;26324;52.040;11.528;2023-03-20T03:46:57;10.40;87.40
40622;DHT22;26324;52.040;11.528;2023-03-20T03:49:07;10.40;87.50
40622;DHT22;26324;52.040;11.528;2023-03-20T03:51:39;10.40;87.40
40622;DHT22;26324;52.040;11.528;2023-03-20T03:54:15;10.40;87.40
40622;DHT22;26324;52.040;11.528;2023-03-20T03:56:50;10.50;87.40
40622;DHT22;26324;52.040;11.528;2023-03-20T03:59:34;10.60;87.10
40622;DHT22;26324;52.040;11.528;2023-03-20T04:02:04;10.60;87.10
40622;DHT22;26324;52.040;11.528;2023-03-20T04:04:36;10.60;87.30
40622;DHT22;26324;52.040;11.528;2023-03-20T04:07:04;10.60;87.30
40622;DHT22;26324;52.040;11.528;2023-03-20T04:09:32;10.60;87.40
40622;DHT22;26324;52.040;11.528;2023-03-20T04:11:59;10.50;87.50
40622;DHT22;26324;52.040;11.528;2023-03-20T04:14:27;10.50;87.60
40622;DHT22;26324;52.040;11.528;2023-03-20T04:16:54;10.50;87.50
40622;DHT22;26324;52.040;11.528;2023-03-20T04:19:22;10.60;87.60
40622;DHT22;26324;52.040;11.528;2023-03-20T04:21:52;10.60;87.10
40622;DHT22;26324;52.040;11.528;2023-03-20T04:24:21;10.60;86.70
40622;DHT22;26324;52.040;11.528;2023-03-20T04:26:48;10.60;86.30
40622;DHT22;26324;52.040;11.528;2023-03-20T04:29:16;10.50;86.20
40622;DHT22;26324;52.040;11.528;2023-03-20T04:32:00;10.50;86.00
40622;DHT22;26324;52.040;11.528;2023-03-20T04:34:46;10.40;85.70
40622;DHT22;26324;52.040;11.528;2023-03-20T04:37:33;10.30;85.50
40622;DHT22;26324;52.040;11.528;2023-03-20T04:40:05;10.20;85.60
40622;DHT22;26324;52.040;11.528;2023-03-20T04:42:33;10.10;85.90
40622;DHT22;26324;52.040;11.528;2023-03-20T04:45:05;10.10;86.00
40622;DHT22;26324;52.040;11.528;2023-03-20T04:47:34;10.00;86.20
40622;DHT22;26324;52.040;11.528;2023-03-20T04:50:02;10.00;86.20
40622;DHT22;26324;52.040;11.528;2023-03-20T04:52:30;10.00;86.40
40622;DHT22;26324;52.040;11.528;2023-03-20T04:54:57;10.00;86.50
40622;DHT22;26324;52.040;11.528;2023-03-20T04:57:25;9.90;86.70
40622;DHT22;26324;52.040;11.528;2023-03-20T04:59:53;9.90;86.80
40622;DHT22;26324;52.040;11.528;2023-03-20T05:02:21;9.90;86.80
40622;DHT22;26324;52.040;11.528;2023-03-20T05:04:48;10.00;86.70
40622;DHT22;26324;52.040;11.528;2023-03-20T05:07:16;9.90;86.90
40622;DHT22;26324;52.040;11.528;2023-03-20T05:09:58;9.80;87.00
40622;DHT22;26324;52.040;11.528;2023-03-20T05:12:27;9.70;87.10
40622;DHT22;26324;52.040;11.528;2023-03-20T05:15:09;9.50;88.00
40622;DHT22;26324;52.040;11.528;2023-03-20T05:18:02;9.60;87.60
40622;DHT22;26324;52.040;11.528;2023-03-20T05:20:48;9.60;87.90
40622;DHT22;26324;52.040;11.528;2023-03-20T05:23:50;9.40;88.30
40622;DHT22;26324;52.040;11.528;2023-03-20T05:26:40;9.70;88.20
40622;DHT22;26324;52.040;11.528;2023-03-20T05:29:21;9.80;87.90
40622;DHT22;26324;52.040;11.528;2023-03-20T05:32:17;9.90;87.50
40622;DHT22;26324;52.040;11.528;2023-03-20T05:35:03;9.90;87.20
40622;DHT22;26324;52.040;11.528;2023-03-20T05:37:51;9.90;87.20
40622;DHT22;26324;52.040;11.528;2023-03-20T05:40:55;9.90;87.00
40622;DHT22;26324;52.040;11.528;2023-03-20T05:43:42;9.90;87.60
40622;DHT22;26324;52.040;11.528;2023-03-20T05:46:24;9.90;87.60
40622;DHT22;26324;52.040;11.528;2023-03-20T05:49:13;10.00;87.50
40622;DHT22;26324;52.040;11.528;2023-03-20T05:51:59;10.00;87.30
40622;DHT22;26324;52.040;11.528;2023-03-20T05:54:52;10.10;87.30
40622;DHT22;26324;52.040;11.528;2023-03-20T05:57:47;10.00;87.50
40622;DHT22;26324;52.040;11.528;2023-03-20T06:00:29;10.00;87.50
40622;DHT22;26324;52.040;11.528;2023-03-20T06:03:19;9.90;87.70
40622;DHT22;26324;52.040;11.528;2023-03-20T06:05:58;10.10;87.60
40622;DHT22;26324;52.040;11.528;2023-03-20T06:08:25;10.10;87.10
40622;DHT22;26324;52.040;11.528;2023-03-20T06:10:54;10.20;87.00
40622;DHT22;26324;52.040;11.528;2023-03-20T06:13:21;10.30;86.90
40622;DHT22;26324;52.040;11.528;2023-03-20T06:15:48;10.30;86.80
40622;DHT22;26324;52.040;11.528;2023-03-20T06:18:17;10.30;86.60
40622;DHT22;26324;52.040;11.528;2023-03-20T06:20:44;10.40;86.60
40622;DHT22;26324;52.040;11.528;2023-03-20T06:23:13;10.40;86.50
40622;DHT22;26324;52.040;11.528;2023-03-20T06:25:40;10.40;86.50
40622;DHT22;26324;52.040;11.528;2023-03-20T06:28:08;10.40;86.70
40622;DHT22;26324;52.040;11.528;2023-03-20T06:30:36;10.30;86.40
40622;DHT22;26324;52.040;11.528;2023-03-20T06:33:05;10.20;86.80
40622;DHT22;26324;52.040;11.528;2023-03-20T06:35:41;10.30;86.50
40622;DHT22;26324;52.040;11.528;2023-03-20T06:38:11;10.30;86.80
40622;DHT22;26324;52.040;11.528;2023-03-20T06:40:38;10.30;86.40
40622;DHT22;26324;52.040;11.528;2023-03-20T06:43:06;10.30;86.40
40622;DHT22;26324;52.040;11.528;2023-03-20T06:45:42;10.30;86.40
40622;DHT22;26324;52.040;11.528;2023-03-20T06:48:20;10.40;86.40
40622;DHT22;26324;52.040;11.528;2023-03-20T06:50:49;10.40;86.00
40622;DHT22;26324;52.040;11.528;2023-03-20T06:53:18;10.50;85.90
40622;DHT22;26324;52.040;11.528;2023-03-20T06:56:04;10.50;85.90
40622;DHT22;26324;52.040;11.528;2023-03-20T06:58:31;10.60;86.00
40622;DHT22;26324;52.040;11.528;2023-03-20T07:00:59;10.80;85.80
40622;DHT22;26324;52.040;11.528;2023-03-20T07:03:26;10.90;85.30
40622;DHT22;26324;52.040;11.528;2023-03-20T07:05:56;11.00;85.10
40622;DHT22;26324;52.040;11.528;2023-03-20T07:08:24;11.20;84.50
40622;DHT22;26324;52.040;11.528;2023-03-20T07:10:51;11.20;83.90
40622;DHT22;26324;52.040;11.528;2023-03-20T07:13:18;11.20;83.20
40622;DHT22;26324;52.040;11.528;2023-03-20T07:15:46;11.20;82.10
40622;DHT22;26324;52.040;11.528;2023-03-20T07:18:32;11.10;79.90
40622;DHT22;26324;52.040;11.528;2023-03-20T07:21:02;10.80;79.10
40622;DHT22;26324;52.040;11.528;2023-03-20T07:23:31;10.70;79.50
40622;DHT22;26324;52.040;11.528;2023-03-20T07:26:01;10.90;80.10
40622;DHT22;26324;52.040;11.528;2023-03-20T07:28:29;10.90;80.00
40622;DHT22;26324;52.040;11.528;2023-03-20T07:31:19;11.00;80.00
40622;DHT22;26324;52.040;11.528;2023-03-20T07:33:49;10.80;78.70
40622;DHT22;26324;52.040;11.528;2023-03-20T07:36:17;10.80;79.40
40622;DHT22;26324;52.040;11.528;2023-03-20T07:38:44;10.60;79.20
40622;DHT22;26324;52.040;11.528;2023-03-20T07:41:12;10.60;80.20
40622;DHT22;26324;52.040;11.528;2023-03-20T07:43:44;10.80;80.70
40622;DHT22;26324;52.040;11.528;2023-03-20T07:46:32;10.80;80.50
40622;DHT22;26324;52.040;11.528;2023-03-20T07:49:00;10.80;79.80
40622;DHT22;26324;52.040;11.528;2023-03-20T07:51:27;11.00;78.40
40622;DHT22;26324;52.040;11.528;2023-03-20T07:53:56;10.80;78.70
40622;DHT22;26324;52.040;11.528;2023-03-20T07:56:23;10.80;80.00
40622;DHT22;26324;52.040;11.528;2023-03-20T07:58:50;10.80;79.10
40622;DHT22;26324;52.040;11.528;2023-03-20T08:01:17;11.00;78.20
40622;DHT22;26324;52.040;11.528;2023-03-20T08:03:44;10.90;78.70
40622;DHT22;26324;52.040;11.528;2023-03-20T08:06:12;10.90;78.90
40622;DHT22;26324;52.040;11.528;2023-03-20T08:08:39;11.10;77.80
40622;DHT22;26324;52.040;11.528;2023-03-20T08:11:07;11.10;77.80
40622;DHT22;26324;52.040;11.528;2023-03-20T08:13:34;11.00;77.20
40622;DHT22;26324;52.040;11.528;2023-03-20T08:16:02;11.20;78.00
40622;DHT22;26324;52.040;11.528;2023-03-20T08:18:29;11.10;77.50
40622;DHT22;26324;52.040;11.528;2023-03-20T08:20:56;11.10;77.00
40622;DHT22;26324;52.040;11.528;2023-03-20T08:23:24;11.10;77.90
40622;DHT22;26324;52.040;11.528;2023-03-20T08:25:52;11.10;77.20
40622;DHT22;26324;52.040;11.528;2023-03-20T08:28:21;11.10;77.80
40622;DHT22;26324;52.040;11.528;2023-03-20T08:31:07;11.10;77.60
40622;DHT22;26324;52.040;11.528;2023-03-20T08:33:35;11.10;77.70
40622;DHT22;26324;52.040;11.528;2023-03-20T08:36:03;11.10;78.30
40622;DHT22;26324;52.040;11.528;2023-03-20T08:38:30;11.20;77.20
40622;DHT22;26324;52.040;11.528;2023-03-20T08:40:57;11.20;76.50
40622;DHT22;26324;52.040;11.528;2023-03-20T08:43:25;11.20;77.60
40622;DHT22;26324;52.040;11.528;2023-03-20T08:45:53;11.20;77.50
40622;DHT22;26324;52.040;11.528;2023-03-20T08:48:20;11.30;77.40
40622;DHT22;26324;52.040;11.528;2023-03-20T08:50:47;11.40;77.60
40622;DHT22;26324;52.040;11.528;2023-03-20T08:53:15;11.40;76.50
40622;DHT22;26324;52.040;11.528;2023-03-20T08:55:50;11.40;75.90
40622;DHT22;26324;52.040;11.528;2023-03-20T08:58:18;11.40;76.50
40622;DHT22;26324;52.040;11.528;2023-03-20T09:00:45;11.40;76.90
40622;DHT22;26324;52.040;11.528;2023-03-20T09:03:15;11.30;77.00
40622;DHT22;26324;52.040;11.528;2023-03-20T09:05:45;11.40;77.10
40622;DHT22;26324;52.040;11.528;2023-03-20T09:08:12;11.50;76.90
40622;DHT22;26324;52.040;11.528;2023-03-20T09:10:40;11.50;77.00
40622;DHT22;26324;52.040;11.528;2023-03-20T09:13:07;11.50;76.10
40622;DHT22;26324;52.040;11.528;2023-03-20T09:15:53;11.50;75.90
40622;DHT22;26324;52.040;11.528;2023-03-20T09:18:22;11.60;76.30
40622;DHT22;26324;52.040;11.528;2023-03-20T09:20:50;11.70;75.70
40622;DHT22;26324;52.040;11.528;2023-03-20T09:23:18;11.70;76.00
40622;DHT22;26324;52.040;11.528;2023-03-20T09:25:45;11.70;75.40
40622;DHT22;26324;52.040;11.528;2023-03-20T09:28:13;11.60;76.30
40622;DHT22;26324;52.040;11.528;2023-03-20T09:30:40;11.70;76.40
40622;DHT22;26324;52.040;11.528;2023-03-20T09:33:09;11.80;75.40
40622;DHT22;26324;52.040;11.528;2023-03-20T09:35:37;11.80;75.60
40622;DHT22;26324;52.040;11.528;2023-03-20T09:38:05;11.90;75.60
40622;DHT22;26324;52.040;11.528;2023-03-20T09:40:53;11.90;74.90
40622;DHT22;26324;52.040;11.528;2023-03-20T09:46:18;12.00;75.40
40622;DHT22;26324;52.040;11.528;2023-03-20T09:51:59;12.10;74.20
40622;DHT22;26324;52.040;11.528;2023-03-20T09:54:36;12.10;75.70
40622;DHT22;26324;52.040;11.528;2023-03-20T09:57:22;12.10;74.00
40622;DHT22;26324;52.040;11.528;2023-03-20T09:59:55;12.10;74.30
40622;DHT22;26324;52.040;11.528;2023-03-20T10:02:51;12.20;73.80
40622;DHT22;26324;52.040;11.528;2023-03-20T10:05:26;12.30;74.10
40622;DHT22;26324;52.040;11.528;2023-03-20T10:08:04;12.10;74.40
40622;DHT22;26324;52.040;11.528;2023-03-20T10:18:39;12.30;74.80
40622;DHT22;26324;52.040;11.528;2023-03-20T10:21:16;12.30;74.80
40622;DHT22;26324;52.040;11.528;2023-03-20T10:24:05;12.30;74.40
40622;DHT22;26324;52.040;11.528;2023-03-20T10:26:35;12.30;74.90
40622;DHT22;26324;52.040;11.528;2023-03-20T10:29:38;12.30;74.30
40622;DHT22;26324;52.040;11.528;2023-03-20T10:32:19;12.40;74.90
40622;DHT22;26324;52.040;11.528;2023-03-20T10:34:58;12.40;75.10
40622;DHT22;26324;52.040;11.528;2023-03-20T10:40:29;12.60;73.40
40622;DHT22;26324;52.040;11.528;2023-03-20T10:43:19;12.60;73.40
40622;DHT22;26324;52.040;11.528;2023-03-20T10:46:00;12.60;73.60
40622;DHT22;26324;52.040;11.528;2023-03-20T10:51:41;12.50;74.00
40622;DHT22;26324;52.040;11.528;2023-03-20T10:54:25;12.40;73.60
40622;DHT22;26324;52.040;11.528;2023-03-20T10:56:56;12.50;74.30
40622;DHT22;26324;52.040;11.528;2023-03-20T10:59:36;12.30;74.30
40622;DHT22;26324;52.040;11.528;2023-03-20T11:02:13;12.30;75.30
40622;DHT22;26324;52.040;11.528;2023-03-20T11:04:40;12.30;74.60
40622;DHT22;26324;52.040;11.528;2023-03-20T11:09:38;12.30;75.20
40622;DHT22;26324;52.040;11.528;2023-03-20T11:12:14;12.40;74.90
40622;DHT22;26324;52.040;11.528;2023-03-20T11:14:44;12.50;76.20
40622;DHT22;26324;52.040;11.528;2023-03-20T11:17:11;12.60;74.30
40622;DHT22;26324;52.040;11.528;2023-03-20T11:19:40;12.50;73.90
40622;DHT22;26324;52.040;11.528;2023-03-20T11:22:27;12.40;75.10
40622;DHT22;26324;52.040;11.528;2023-03-20T11:25:00;12.50;74.90
40622;DHT22;26324;52.040;11.528;2023-03-20T11:27:30;12.60;75.30
40622;DHT22;26324;52.040;11.528;2023-03-20T11:30:05;12.50;75.50
40622;DHT22;26324;52.040;11.528;2023-03-20T11:32:38;12.50;74.60
40622;DHT22;26324;52.040;11.528;2023-03-20T11:35:26;12.50;74.80
40622;DHT22;26324;52.040;11.528;2023-03-20T11:38:12;12.60;74.40
40622;DHT22;26324;52.040;11.528;2023-03-20T11:40:40;12.60;73.60
40622;DHT22;26324;52.040;11.528;2023-03-20T11:43:11;12.60;73.50
40622;DHT22;26324;52.040;11.528;2023-03-20T11:45:41;12.70;73.00
40622;DHT22;26324;52.040;11.528;2023-03-20T11:48:24;12.90;72.80
40622;DHT22;26324;52.040;11.528;2023-03-20T11:51:14;13.10;70.90
40622;DHT22;26324;52.040;11.528;2023-03-20T11:56:26;13.50;68.60
40622;DHT22;26324;52.040;11.528;2023-03-20T11:59:05;13.40;68.20
40622;DHT22;26324;52.040;11.528;2023-03-20T12:01:47;13.30;68.20
40622;DHT22;26324;52.040;11.528;2023-03-20T12:10:01;13.30;68.80
40622;DHT22;26324;52.040;11.528;2023-03-20T12:12:39;13.00;68.80
40622;DHT22;26324;52.040;11.528;2023-03-20T12:15:29;13.10;69.10
40622;DHT22;26324;52.040;11.528;2023-03-20T12:18:07;13.30;68.70
40622;DHT22;26324;52.040;11.528;2023-03-20T12:23:48;13.10;69.30
40622;DHT22;26324;52.040;11.528;2023-03-20T12:26:23;13.30;68.30
40622;DHT22;26324;52.040;11.528;2023-03-20T12:29:00;13.30;67.90
40622;DHT22;26324;52.040;11.528;2023-03-20T12:31:38;13.40;67.00
40622;DHT22;26324;52.040;11.528;2023-03-20T12:34:20;13.50;69.20
40622;DHT22;26324;52.040;11.528;2023-03-20T12:36:49;13.60;68.70
40622;DHT22;26324;52.040;11.528;2023-03-20T12:39:22;13.60;67.30
40622;DHT22;26324;52.040;11.528;2023-03-20T12:44:38;13.50;66.10
40622;DHT22;26324;52.040;11.528;2023-03-20T12:47:37;13.30;67.80
40622;DHT22;26324;52.040;11.528;2023-03-20T12:53:08;12.80;68.20
40622;DHT22;26324;52.040;11.528;2023-03-20T12:55:55;12.80;67.80
40622;DHT22;26324;52.040;11.528;2023-03-20T13:01:14;13.10;67.10
40622;DHT22;26324;52.040;11.528;2023-03-20T13:03:57;13.70;65.40
40622;DHT22;26324;52.040;11.528;2023-03-20T13:07:01;13.80;65.30
40622;DHT22;26324;52.040;11.528;2023-03-20T13:10:08;14.20;65.40
40622;DHT22;26324;52.040;11.528;2023-03-20T13:13:03;14.50;62.20
40622;DHT22;26324;52.040;11.528;2023-03-20T13:16:05;14.60;60.90
40622;DHT22;26324;52.040;11.528;2023-03-20T13:19:14;14.90;60.50
40622;DHT22;26324;52.040;11.528;2023-03-20T13:22:07;14.70;60.30
40622;DHT22;26324;52.040;11.528;2023-03-20T13:27:55;14.50;58.50
40622;DHT22;26324;52.040;11.528;2023-03-20T13:30:33;14.10;60.40
40622;DHT22;26324;52.040;11.528;2023-03-20T13:33:22;14.10;62.60
40622;DHT22;26324;52.040;11.528;2023-03-20T13:36:16;14.20;62.00
40622;DHT22;26324;52.040;11.528;2023-03-20T13:38:58;13.70;63.10
40622;DHT22;26324;52.040;11.528;2023-03-20T13:41:27;13.60;63.30
40622;DHT22;26324;52.040;11.528;2023-03-20T13:44:02;13.50;64.20
40622;DHT22;26324;52.040;11.528;2023-03-20T13:46:37;13.40;62.50
40622;DHT22;26324;52.040;11.528;2023-03-20T13:49:13;13.60;61.90
40622;DHT22;26324;52.040;11.528;2023-03-20T13:52:02;13.50;61.40
40622;DHT22;26324;52.040;11.528;2023-03-20T14:00:36;14.00;58.60
40622;DHT22;26324;52.040;11.528;2023-03-20T14:03:13;14.00;59.30
40622;DHT22;26324;52.040;11.528;2023-03-20T14:05:43;13.90;60.20
40622;DHT22;26324;52.040;11.528;2023-03-20T14:10:55;13.40;59.90
40622;DHT22;26324;52.040;11.528;2023-03-20T14:13:32;13.20;60.20
40622;DHT22;26324;52.040;11.528;2023-03-20T14:16:02;13.10;61.70
40622;DHT22;26324;52.040;11.528;2023-03-20T14:18:30;13.00;63.40
40622;DHT22;26324;52.040;11.528;2023-03-20T14:20:59;13.10;64.60
40622;DHT22;26324;52.040;11.528;2023-03-20T14:23:32;13.30;62.80
40622;DHT22;26324;52.040;11.528;2023-03-20T14:26:02;13.10;62.40
40622;DHT22;26324;52.040;11.528;2023-03-20T14:28:43;13.10;64.40
40622;DHT22;26324;52.040;11.528;2023-03-20T14:31:27;13.10;63.40
40622;DHT22;26324;52.040;11.528;2023-03-20T14:39:39;13.20;64.00
40622;DHT22;26324;52.040;11.528;2023-03-20T14:42:25;13.40;63.60
40622;DHT22;26324;52.040;11.528;2023-03-20T14:52:50;13.30;60.50
40622;DHT22;26324;52.040;11.528;2023-03-20T14:57:47;13.10;59.50
40622;DHT22;26324;52.040;11.528;2023-03-20T15:00:28;13.00;61.20
40622;DHT22;26324;52.040;11.528;2023-03-20T15:03:09;13.10;60.80
40622;DHT22;26324;52.040;11.528;2023-03-20T15:05:38;13.00;62.00
40622;DHT22;26324;52.040;11.528;2023-03-20T15:08:08;13.00;62.60
40622;DHT22;26324;52.040;11.528;2023-03-20T15:10:44;13.00;62.40
40622;DHT22;26324;52.040;11.528;2023-03-20T15:13:14;13.10;62.40
40622;DHT22;26324;52.040;11.528;2023-03-20T15:16:02;12.90;62.30
40622;DHT22;26324;52.040;11.528;2023-03-20T15:18:37;12.70;62.00
40622;DHT22;26324;52.040;11.528;2023-03-20T15:21:14;12.50;61.70
40622;DHT22;26324;52.040;11.528;2023-03-20T15:23:43;12.50;62.50
40622;DHT22;26324;52.040;11.528;2023-03-20T15:26:14;12.50;63.10
40622;DHT22;26324;52.040;11.528;2023-03-20T15:28:43;12.60;62.00
40622;DHT22;26324;52.040;11.528;2023-03-20T15:31:22;12.60;61.60
40622;DHT22;26324;52.040;11.528;2023-03-20T15:33:50;12.30;62.10
40622;DHT22;26324;52.040;11.528;2023-03-20T15:36:20;12.40;62.30
40622;DHT22;26324;52.040;11.528;2023-03-20T15:38:48;12.40;62.80
40622;DHT22;26324;52.040;11.528;2023-03-20T15:41:28;12.50;63.80
40622;DHT22;26324;52.040;11.528;2023-03-20T15:44:38;12.50;62.40
40622;DHT22;26324;52.040;11.528;2023-03-20T15:49:38;12.60;62.10
40622;DHT22;26324;52.040;11.528;2023-03-20T15:52:44;12.70;60.90
40622;DHT22;26324;52.040;11.528;2023-03-20T15:55:21;12.70;62.20
40622;DHT22;26324;52.040;11.528;2023-03-20T15:57:50;12.90;60.90
40622;DHT22;26324;52.040;11.528;2023-03-20T16:00:27;12.80;60.40
40622;DHT22;26324;52.040;11.528;2023-03-20T16:02:55;12.70;61.50
40622;DHT22;26324;52.040;11.528;2023-03-20T16:05:28;12.60;59.10
40622;DHT22;26324;52.040;11.528;2023-03-20T16:07:56;12.70;59.70
40622;DHT22;26324;52.040;11.528;2023-03-20T16:10:41;12.80;59.60
40622;DHT22;26324;52.040;11.528;2023-03-20T16:13:12;12.80;61.70
40622;DHT22;26324;52.040;11.528;2023-03-20T16:15:40;12.70;59.80
40622;DHT22;26324;52.040;11.528;2023-03-20T16:18:13;12.60;60.20
40622;DHT22;26324;52.040;11.528;2023-03-20T16:20:57;12.50;58.30
40622;DHT22;26324;52.040;11.528;2023-03-20T16:23:44;12.50;59.20
40622;DHT22;26324;52.040;11.528;2023-03-20T16:26:21;12.40;57.70
40622;DHT22;26324;52.040;11.528;2023-03-20T16:28:51;12.30;60.00
40622;DHT22;26324;52.040;11.528;2023-03-20T16:31:24;12.30;61.00
40622;DHT22;26324;52.040;11.528;2023-03-20T16:34:01;12.30;60.70
40622;DHT22;26324;52.040;11.528;2023-03-20T16:36:35;12.30;61.10
40622;DHT22;26324;52.040;11.528;2023-03-20T16:41:35;11.90;59.30
40622;DHT22;26324;52.040;11.528;2023-03-20T16:44:13;11.70;59.50
40622;DHT22;26324;52.040;11.528;2023-03-20T16:46:59;11.70;59.40
40622;DHT22;26324;52.040;11.528;2023-03-20T16:52:04;11.70;61.10
40622;DHT22;26324;52.040;11.528;2023-03-20T16:54:34;11.70;60.80
40622;DHT22;26324;52.040;11.528;2023-03-20T16:57:03;11.80;61.10
40622;DHT22;26324;52.040;11.528;2023-03-20T16:59:37;11.60;61.10
40622;DHT22;26324;52.040;11.528;2023-03-20T17:02:28;11.60;60.80
40622;DHT22;26324;52.040;11.528;2023-03-20T17:05:01;11.60;61.00
40622;DHT22;26324;52.040;11.528;2023-03-20T17:07:30;11.60;61.00
40622;DHT22;26324;52.040;11.528;2023-03-20T17:10:19;11.60;61.80
40622;DHT22;26324;52.040;11.528;2023-03-20T17:12:48;11.50;62.10
40622;DHT22;26324;52.040;11.528;2023-03-20T17:15:20;11.40;62.10
40622;DHT22;26324;52.040;11.528;2023-03-20T17:17:48;11.50;61.90
40622;DHT22;26324;52.040;11.528;2023-03-20T17:20:23;11.50;62.90
40622;DHT22;26324;52.040;11.528;2023-03-20T17:22:51;11.50;63.60
40622;DHT22;26324;52.040;11.528;2023-03-20T17:25:19;11.60;64.00
40622;DHT22;26324;52.040;11.528;2023-03-20T17:27:46;11.60;63.50
40622;DHT22;26324;52.040;11.528;2023-03-20T17:30:20;11.60;63.30
40622;DHT22;26324;52.040;11.528;2023-03-20T17:32:48;11.60;64.00
40622;DHT22;26324;52.040;11.528;2023-03-20T17:35:16;11.60;64.10
40622;DHT22;26324;52.040;11.528;2023-03-20T17:37:43;11.60;64.10
40622;DHT22;26324;52.040;11.528;2023-03-20T17:40:20;11.60;64.30
40622;DHT22;26324;52.040;11.528;2023-03-20T17:42:47;11.50;64.00
40622;DHT22;26324;52.040;11.528;2023-03-20T17:45:16;11.50;64.30
40622;DHT22;26324;52.040;11.528;2023-03-20T17:47:47;11.30;64.60